createdAt,value
2019-05-01T00:01:00.121Z,5.40
2019-05-01T00:03:40.082Z,5.31
2019-05-01T00:06:09.487Z,5.24
2019-05-01T00:08:38.335Z,5.18
2019-05-01T00:11:07.511Z,5.15
2019-05-01T00:13:36.317Z,5.16
2019-05-01T00:16:05.551Z,5.22
2019-05-01T00:18:34.355Z,5.23
2019-05-01T00:21:03.091Z,5.25
2019-05-01T00:23:31.906Z,5.15
2019-05-01T00:26:00.801Z,5.17
2019-05-01T00:28:29.696Z,5.10
2019-05-01T00:30:58.682Z,5.05
2019-05-01T00:33:27.861Z,5.01
2019-05-01T00:35:56.745Z,5.05
2019-05-01T00:38:25.604Z,4.95
2019-05-01T00:40:54.457Z,4.99
2019-05-01T00:43:23.607Z,4.82
2019-05-01T00:45:52.494Z,4.89
2019-05-01T00:48:21.513Z,4.84
2019-05-01T00:50:50.510Z,4.84
2019-05-01T00:53:19.415Z,4.83
2019-05-01T00:56:06.265Z,4.79
2019-05-01T00:58:50.011Z,4.70
2019-05-01T01:01:40.625Z,4.71
2019-05-01T01:04:11.492Z,4.75
2019-05-01T01:06:40.473Z,4.66
2019-05-01T01:09:12.032Z,4.58
2019-05-01T01:11:40.735Z,4.56
2019-05-01T01:14:09.873Z,4.62
2019-05-01T01:16:38.671Z,4.61
2019-05-01T01:19:07.490Z,4.55
2019-05-01T01:21:36.485Z,4.44
2019-05-01T01:24:05.477Z,4.39
2019-05-01T01:26:34.961Z,4.39
2019-05-01T01:29:03.994Z,4.38
2019-05-01T01:31:32.876Z,4.27
2019-05-01T01:34:01.957Z,4.21
2019-05-01T01:36:30.952Z,4.08
2019-05-01T01:39:01.253Z,4.05
2019-05-01T01:41:30.048Z,3.99
2019-05-01T01:44:16.224Z,3.98
2019-05-01T01:46:45.461Z,3.94
2019-05-01T01:49:14.566Z,4.00
2019-05-01T01:51:43.719Z,3.95
2019-05-01T01:54:12.781Z,4.01
2019-05-01T01:56:41.668Z,3.96
2019-05-01T01:59:10.770Z,3.94
2019-05-01T02:02:02.144Z,3.82
2019-05-01T02:04:47.726Z,3.81
2019-05-01T02:07:16.975Z,3.82
2019-05-01T02:09:45.867Z,3.82
2019-05-01T02:12:14.702Z,3.78
2019-05-01T02:14:43.540Z,3.74
2019-05-01T02:17:12.380Z,3.63
2019-05-01T02:19:41.203Z,3.69
2019-05-01T02:22:10.392Z,3.59
2019-05-01T02:24:39.200Z,3.57
2019-05-01T02:27:12.672Z,3.54
2019-05-01T02:29:46.908Z,3.55
2019-05-01T02:32:16.033Z,3.56
2019-05-01T02:34:45.323Z,3.56
2019-05-01T02:37:15.986Z,3.47
2019-05-01T02:39:44.848Z,3.51
2019-05-01T02:42:15.031Z,3.47
2019-05-01T02:44:48.083Z,3.46
2019-05-01T02:47:22.217Z,3.44
2019-05-01T02:49:58.832Z,3.51
2019-05-01T02:52:30.954Z,3.47
2019-05-01T02:55:03.463Z,3.51
2019-05-01T02:57:32.551Z,3.49
2019-05-01T03:00:01.677Z,3.49
2019-05-01T03:02:31.362Z,3.53
2019-05-01T03:05:00.985Z,3.58
2019-05-01T03:07:33.029Z,3.55
2019-05-01T03:10:02.336Z,3.62
2019-05-01T03:12:31.725Z,3.63
2019-05-01T03:15:02.783Z,3.58
2019-05-01T03:17:53.264Z,3.53
2019-05-01T03:20:47.264Z,3.44
2019-05-01T03:23:23.322Z,3.44
2019-05-01T03:25:52.291Z,3.42
2019-05-01T03:28:21.372Z,3.35
2019-05-01T03:30:51.440Z,3.36
2019-05-01T03:33:20.510Z,3.33
2019-05-01T03:35:49.589Z,3.24
2019-05-01T03:38:18.829Z,3.14
2019-05-01T03:40:48.126Z,3.20
2019-05-01T03:43:16.989Z,3.11
2019-05-01T03:45:46.635Z,3.16
2019-05-01T03:48:15.516Z,3.15
2019-05-01T03:50:46.960Z,3.16
2019-05-01T03:53:16.320Z,3.18
2019-05-01T03:55:45.487Z,3.18
2019-05-01T03:58:14.619Z,3.14
2019-05-01T04:00:51.934Z,3.07
2019-05-01T04:03:25.409Z,3.15
2019-05-01T04:05:54.751Z,3.23
2019-05-01T04:08:25.374Z,3.21
2019-05-01T04:10:55.189Z,3.18
2019-05-01T04:13:24.452Z,3.15
2019-05-01T04:15:54.144Z,3.16
2019-05-01T04:18:23.248Z,3.12
2019-05-01T04:20:52.091Z,3.14
2019-05-01T04:23:21.375Z,3.19
2019-05-01T04:25:50.871Z,3.19
2019-05-01T04:28:47.691Z,3.19
2019-05-01T04:31:41.390Z,3.24
2019-05-01T04:34:18.942Z,3.30
2019-05-01T04:36:50.808Z,3.35
2019-05-01T04:39:19.821Z,3.40
2019-05-01T04:41:49.991Z,3.42
2019-05-01T04:44:19.045Z,3.47
2019-05-01T04:46:47.973Z,3.52
2019-05-01T04:49:18.136Z,3.56
2019-05-01T04:51:48.693Z,3.65
2019-05-01T04:54:17.577Z,3.65
2019-05-01T04:56:47.071Z,3.78
2019-05-01T04:59:16.334Z,3.87
2019-05-01T05:02:00.261Z,3.95
2019-05-01T05:04:30.168Z,3.99
2019-05-01T05:06:59.346Z,4.10
2019-05-01T05:09:42.999Z,4.20
2019-05-01T05:12:36.443Z,4.24
2019-05-01T05:15:25.882Z,4.35
2019-05-01T05:17:54.708Z,4.45
2019-05-01T05:20:23.594Z,4.54
2019-05-01T05:22:52.449Z,4.62
2019-05-01T05:25:21.550Z,4.72
2019-05-01T05:27:50.777Z,4.82
2019-05-01T05:30:19.941Z,4.91
2019-05-01T05:32:49.725Z,5.05
2019-05-01T05:35:20.280Z,5.16
2019-05-01T05:38:08.905Z,5.33
2019-05-01T05:40:37.883Z,5.42
2019-05-01T05:43:06.796Z,5.58
2019-05-01T05:45:36.047Z,5.66
2019-05-01T05:48:05.021Z,5.79
2019-05-01T05:50:39.709Z,5.88
2019-05-01T05:53:10.627Z,6.06
2019-05-01T05:55:44.024Z,6.20
2019-05-01T06:01:29.392Z,6.60
2019-05-01T06:04:22.919Z,6.88
2019-05-01T06:07:05.402Z,7.08
2019-05-01T06:09:57.272Z,7.18
2019-05-01T06:12:37.311Z,7.27
2019-05-01T06:15:23.998Z,7.29
2019-05-01T06:18:05.883Z,7.38
2019-05-01T06:26:37.226Z,7.78
2019-05-01T06:29:08.071Z,8.05
2019-05-01T06:31:39.799Z,8.93
2019-05-01T06:39:33.474Z,11.16
2019-05-01T06:42:04.273Z,11.82
2019-05-01T06:44:44.053Z,12.07
2019-05-01T06:47:43.131Z,12.53
2019-05-01T06:50:18.145Z,12.43
2019-05-01T06:52:47.212Z,12.50
2019-05-01T06:55:16.023Z,12.17
2019-05-01T06:57:45.642Z,12.19
2019-05-01T07:00:17.777Z,11.74
2019-05-01T07:02:47.998Z,12.09
2019-05-01T07:05:16.917Z,12.82
2019-05-01T07:07:48.147Z,13.49
2019-05-01T07:10:29.484Z,13.75
2019-05-01T07:12:48.038Z,14.18
2019-05-01T07:15:17.398Z,13.43
2019-05-01T07:17:47.824Z,13.68
2019-05-01T07:20:25.596Z,14.15
2019-05-01T07:22:54.918Z,14.19
2019-05-01T07:25:23.975Z,14.81
2019-05-01T07:27:53.860Z,14.31
2019-05-01T07:30:42.764Z,14.91
2019-05-01T07:33:16.505Z,15.27
2019-05-01T07:35:43.299Z,15.23
2019-05-01T07:38:12.174Z,15.73
2019-05-01T07:40:41.427Z,15.91
2019-05-01T07:43:24.018Z,15.72
2019-05-01T07:46:13.827Z,16.05
2019-05-01T07:48:44.248Z,15.92
2019-05-01T07:51:14.099Z,15.70
2019-05-01T07:53:43.348Z,16.25
2019-05-01T07:56:12.377Z,16.55
2019-05-01T07:58:41.896Z,16.94
2019-05-01T08:01:20.163Z,16.96
2019-05-01T08:03:49.026Z,16.96
2019-05-01T08:06:21.784Z,16.44
2019-05-01T08:08:48.896Z,16.75
2019-05-01T08:11:18.105Z,16.91
2019-05-01T08:13:47.578Z,17.16
2019-05-01T08:16:17.265Z,17.15
2019-05-01T08:18:51.217Z,17.19
2019-05-01T08:21:38.568Z,17.18
2019-05-01T08:24:08.786Z,17.17
2019-05-01T08:26:39.621Z,16.74
2019-05-01T08:29:30.461Z,16.81
2019-05-01T08:32:21.370Z,16.92
2019-05-01T08:34:50.449Z,16.81
2019-05-01T08:37:24.674Z,16.86
2019-05-01T08:39:54.149Z,16.82
2019-05-01T08:42:22.883Z,16.89
2019-05-01T08:45:15.464Z,16.82
2019-05-01T08:47:46.137Z,16.96
2019-05-01T08:50:19.916Z,16.83
2019-05-01T08:52:51.261Z,16.73
2019-05-01T08:55:20.292Z,16.32
2019-05-01T08:57:49.488Z,16.60
2019-05-01T09:00:18.564Z,16.66
2019-05-01T09:02:47.558Z,16.73
2019-05-01T09:05:28.120Z,16.93
2019-05-01T09:07:51.325Z,17.01
2019-05-01T09:10:21.710Z,17.30
2019-05-01T09:12:51.783Z,16.68
2019-05-01T09:15:21.089Z,17.05
2019-05-01T09:17:50.168Z,17.22
2019-05-01T09:20:21.182Z,17.06
2019-05-01T09:22:50.475Z,16.97
2019-05-01T09:25:23.896Z,17.07
2019-05-01T09:28:04.144Z,17.02
2019-05-01T09:30:35.343Z,16.84
2019-05-01T09:33:04.289Z,16.66
2019-05-01T09:35:33.161Z,16.54
2019-05-01T09:38:02.043Z,16.48
2019-05-01T09:40:31.234Z,16.31
2019-05-01T09:43:03.434Z,16.19
2019-05-01T09:45:32.291Z,16.07
2019-05-01T09:48:01.215Z,16.07
2019-05-01T09:50:31.767Z,16.04
2019-05-01T09:53:11.202Z,15.93
2019-05-01T09:55:47.111Z,15.99
2019-05-01T09:58:19.461Z,15.88
2019-05-01T10:00:52.587Z,15.87
2019-05-01T10:03:19.767Z,15.83
2019-05-01T10:05:49.032Z,15.80
2019-05-01T10:08:18.308Z,15.77
2019-05-01T10:10:47.756Z,15.70
2019-05-01T10:13:17.684Z,15.81
2019-05-01T10:15:47.234Z,15.74
2019-05-01T10:18:16.235Z,15.61
2019-05-01T10:21:03.630Z,15.64
2019-05-01T10:23:34.756Z,15.63
2019-05-01T10:26:06.346Z,15.58
2019-05-01T10:28:50.029Z,15.39
2019-05-01T10:31:23.424Z,15.41
2019-05-01T10:33:55.452Z,15.46
2019-05-01T10:36:33.889Z,15.44
2019-05-01T10:39:03.587Z,15.38
2019-05-01T10:41:32.512Z,15.32
2019-05-01T10:44:01.264Z,15.25
2019-05-01T10:46:30.446Z,15.24
2019-05-01T10:48:59.360Z,15.25
2019-05-01T10:51:30.822Z,15.24
2019-05-01T10:53:59.821Z,15.31
2019-05-01T10:56:29.121Z,15.35
2019-05-01T10:58:57.970Z,15.37
2019-05-01T11:01:45.965Z,15.45
2019-05-01T11:04:15.129Z,15.48
2019-05-01T11:06:44.151Z,15.46
2019-05-01T11:09:14.152Z,15.47
2019-05-01T11:11:43.123Z,15.46
2019-05-01T11:14:12.051Z,15.47
2019-05-01T11:16:40.975Z,15.53
2019-05-01T11:19:09.846Z,15.55
2019-05-01T11:21:38.814Z,15.55
2019-05-01T11:24:07.746Z,15.57
2019-05-01T11:26:36.900Z,15.53
2019-05-01T11:29:09.087Z,15.45
2019-05-01T11:31:45.828Z,15.42
2019-05-01T11:34:52.123Z,15.33
2019-05-01T11:37:42.286Z,15.19
2019-05-01T11:40:16.352Z,15.08
2019-05-01T11:42:45.330Z,15.00
2019-05-01T11:45:14.249Z,14.98
2019-05-01T11:47:43.222Z,14.88
2019-05-01T11:50:12.242Z,14.88
2019-05-01T11:52:41.042Z,14.82
2019-05-01T11:55:10.088Z,14.75
2019-05-01T11:57:39.076Z,14.68
2019-05-01T12:00:10.208Z,14.69
2019-05-01T12:02:39.140Z,14.61
2019-05-01T12:05:08.010Z,14.58
2019-05-01T12:07:37.923Z,14.60
2019-05-01T12:12:52.782Z,14.63
2019-05-01T12:15:21.720Z,14.62
2019-05-01T12:17:52.797Z,14.68
2019-05-01T12:20:22.749Z,14.66
2019-05-01T12:22:52.049Z,14.75
2019-05-01T12:25:21.028Z,14.92
2019-05-01T12:27:50.222Z,15.06
2019-05-01T12:30:19.184Z,15.14
2019-05-01T12:32:48.175Z,15.30
2019-05-01T12:35:17.072Z,15.46
2019-05-01T12:37:45.960Z,15.61
2019-05-01T12:40:17.388Z,15.74
2019-05-01T12:42:46.314Z,15.82
2019-05-01T12:45:15.773Z,15.93
2019-05-01T12:47:53.165Z,15.92
2019-05-01T12:50:22.218Z,16.00
2019-05-01T12:53:10.034Z,16.01
2019-05-01T12:55:51.345Z,16.08
2019-05-01T12:58:21.242Z,16.11
2019-05-01T13:00:52.428Z,16.17
2019-05-01T13:03:21.578Z,16.16
2019-05-01T13:05:50.475Z,16.17
2019-05-01T13:08:19.408Z,16.29
2019-05-01T13:10:48.937Z,16.33
2019-05-01T13:13:17.969Z,16.36
2019-05-01T13:15:46.895Z,16.43
2019-05-01T13:18:15.877Z,16.55
2019-05-01T13:20:44.880Z,16.62
2019-05-01T13:23:13.738Z,16.72
2019-05-01T13:25:43.075Z,16.84
2019-05-01T13:28:42.839Z,16.88
2019-05-01T13:31:34.990Z,16.91
2019-05-01T13:34:04.245Z,16.91
2019-05-01T13:36:33.162Z,16.97
2019-05-01T13:39:02.234Z,16.97
2019-05-01T13:41:31.066Z,16.97
2019-05-01T13:43:59.881Z,16.88
2019-05-01T13:46:28.666Z,16.98
2019-05-01T13:48:57.500Z,16.99
2019-05-01T13:51:26.313Z,16.89
2019-05-01T13:53:56.328Z,16.89
2019-05-01T13:56:25.151Z,16.86
2019-05-01T13:58:53.867Z,16.80
2019-05-01T14:01:23.136Z,16.83
2019-05-01T14:03:51.995Z,16.79
2019-05-01T14:06:20.986Z,16.71
2019-05-01T14:08:49.944Z,16.72
2019-05-01T14:11:18.770Z,16.69
2019-05-01T14:13:47.967Z,16.64
2019-05-01T14:16:16.824Z,16.63
2019-05-01T14:18:45.894Z,16.58
2019-05-01T14:21:22.398Z,16.54
2019-05-01T14:24:10.996Z,16.50
2019-05-01T14:26:39.856Z,16.56
2019-05-01T14:29:08.681Z,16.61
2019-05-01T14:31:37.637Z,16.73
2019-05-01T14:34:07.569Z,16.93
2019-05-01T14:36:36.808Z,17.25
2019-05-01T14:39:09.243Z,17.42
2019-05-01T14:41:38.264Z,17.70
2019-05-01T14:44:08.333Z,17.60
2019-05-01T14:46:37.259Z,17.61
2019-05-01T14:49:06.427Z,17.67
2019-05-01T14:51:35.447Z,17.77
2019-05-01T14:54:05.586Z,17.83
2019-05-01T14:56:34.513Z,17.80
2019-05-01T14:59:03.714Z,17.59
2019-05-01T15:01:32.545Z,17.51
2019-05-01T15:04:01.552Z,17.24
2019-05-01T15:06:30.508Z,17.27
2019-05-01T15:08:59.717Z,17.27
2019-05-01T15:11:28.572Z,17.26
2019-05-01T15:14:20.014Z,17.13
2019-05-01T15:16:56.410Z,17.09
2019-05-01T15:19:27.610Z,17.12
2019-05-01T15:21:56.744Z,16.99
2019-05-01T15:24:28.813Z,16.96
2019-05-01T15:26:57.730Z,16.94
2019-05-01T15:29:26.607Z,16.82
2019-05-01T15:31:55.790Z,16.80
2019-05-01T15:34:24.614Z,16.76
2019-05-01T15:36:53.832Z,16.68
2019-05-01T15:39:44.577Z,16.58
2019-05-01T15:42:34.259Z,16.57
2019-05-01T15:45:03.275Z,16.58
2019-05-01T15:47:41.100Z,16.51
2019-05-01T15:50:10.040Z,16.44
2019-05-01T15:52:38.961Z,16.36
2019-05-01T15:55:11.029Z,16.23
2019-05-01T15:57:40.079Z,16.22
2019-05-01T16:00:09.463Z,16.18
2019-05-01T16:02:38.520Z,16.10
2019-05-01T16:05:07.978Z,16.04
2019-05-01T16:07:36.832Z,16.04
2019-05-01T16:10:10.089Z,16.19
2019-05-01T16:12:44.939Z,16.23
2019-05-01T16:15:33.263Z,16.25
2019-05-01T16:18:02.568Z,16.22
2019-05-01T16:20:31.482Z,16.40
2019-05-01T16:23:00.463Z,16.37
2019-05-01T16:25:29.347Z,16.43
2019-05-01T16:27:59.924Z,16.43
2019-05-01T16:30:28.969Z,16.45
2019-05-01T16:32:57.890Z,16.57
2019-05-01T16:35:26.759Z,16.52
2019-05-01T16:37:58.703Z,16.50
2019-05-01T16:40:39.327Z,16.36
2019-05-01T16:43:10.408Z,16.33
2019-05-01T16:45:43.451Z,16.34
2019-05-01T16:48:13.887Z,16.24
2019-05-01T16:50:42.843Z,16.12
2019-05-01T16:53:16.297Z,15.99
2019-05-01T16:55:45.506Z,16.14
2019-05-01T16:58:15.203Z,16.17
2019-05-01T17:01:06.527Z,15.97
2019-05-01T17:03:42.862Z,15.78
2019-05-01T17:06:19.380Z,15.78
2019-05-01T17:09:20.356Z,15.82
2019-05-01T17:11:49.806Z,15.75
2019-05-01T17:14:18.834Z,15.61
2019-05-01T17:16:47.789Z,15.69
2019-05-01T17:19:17.166Z,15.71
2019-05-01T17:21:46.376Z,15.68
2019-05-01T17:24:15.573Z,15.67
2019-05-01T17:26:50.510Z,15.71
2019-05-01T17:29:19.744Z,15.66
2019-05-01T17:31:51.664Z,15.66
2019-05-01T17:34:25.730Z,15.57
2019-05-01T17:36:55.073Z,15.56
2019-05-01T17:39:28.232Z,15.36
2019-05-01T17:41:57.572Z,15.18
2019-05-01T17:44:27.847Z,14.83
2019-05-01T17:46:56.843Z,14.58
2019-05-01T17:49:25.847Z,14.27
2019-05-01T17:51:54.715Z,14.37
2019-05-01T17:54:24.025Z,14.29
2019-05-01T17:56:55.732Z,14.28
2019-05-01T17:59:23.846Z,14.15
2019-05-01T18:02:11.532Z,14.11
2019-05-01T18:04:51.578Z,14.13
2019-05-01T18:07:21.618Z,14.15
2019-05-01T18:09:51.370Z,14.09
2019-05-01T18:14:56.993Z,14.21
2019-05-01T18:17:26.755Z,14.21
2019-05-01T18:19:57.338Z,14.14
2019-05-01T18:22:48.164Z,14.07
2019-05-01T18:25:33.071Z,14.03
2019-05-01T18:28:31.750Z,14.02
2019-05-01T18:31:00.973Z,14.04
2019-05-01T18:33:29.966Z,14.03
2019-05-01T18:35:59.025Z,13.86
2019-05-01T18:38:36.801Z,13.74
2019-05-01T18:41:28.115Z,13.68
2019-05-01T18:43:57.964Z,13.49
2019-05-01T18:46:27.061Z,13.44
2019-05-01T18:48:57.207Z,13.41
2019-05-01T18:51:26.331Z,13.05
2019-05-01T18:54:01.288Z,12.82
2019-05-01T18:56:30.547Z,12.73
2019-05-01T18:58:59.424Z,12.59
2019-05-01T19:01:28.403Z,12.38
2019-05-01T19:03:57.908Z,12.17
2019-05-01T19:06:40.107Z,11.97
2019-05-01T19:09:14.029Z,11.77
2019-05-01T19:11:36.036Z,11.71
2019-05-01T19:14:05.855Z,11.62
2019-05-01T19:16:34.775Z,11.47
2019-05-01T19:19:06.396Z,11.25
2019-05-01T19:21:41.914Z,11.21
2019-05-01T19:24:16.009Z,11.12
2019-05-01T19:26:45.089Z,11.09
2019-05-01T19:29:17.584Z,11.05
2019-05-01T19:31:46.707Z,11.01
2019-05-01T19:34:15.795Z,10.83
2019-05-01T19:36:45.314Z,10.65
2019-05-01T19:39:16.345Z,10.70
2019-05-01T19:41:49.053Z,10.68
2019-05-01T19:44:18.946Z,10.62
2019-05-01T19:46:47.688Z,10.60
2019-05-01T19:49:24.470Z,10.46
2019-05-01T19:51:55.548Z,10.41
2019-05-01T19:54:27.933Z,10.41
2019-05-01T19:56:54.315Z,10.24
2019-05-01T19:59:23.506Z,10.23
2019-05-01T20:01:52.905Z,10.17
2019-05-01T20:04:22.859Z,10.16
2019-05-01T20:06:53.276Z,10.10
2019-05-01T20:09:25.426Z,10.09
2019-05-01T20:12:01.066Z,10.01
2019-05-01T20:14:30.944Z,9.98
2019-05-01T20:17:00.123Z,9.97
2019-05-01T20:19:30.063Z,9.97
2019-05-01T20:21:59.183Z,9.79
2019-05-01T20:24:28.646Z,9.82
2019-05-01T20:26:58.502Z,9.81
2019-05-01T20:29:28.042Z,9.73
2019-05-01T20:31:59.845Z,9.62
2019-05-01T20:34:29.031Z,9.62
2019-05-01T20:37:00.599Z,9.58
2019-05-01T20:39:30.434Z,9.57
2019-05-01T20:42:00.353Z,9.45
2019-05-01T20:44:29.263Z,9.45
2019-05-01T20:47:02.519Z,9.43
2019-05-01T20:49:29.886Z,9.38
2019-05-01T20:51:58.797Z,9.40
2019-05-01T20:54:27.815Z,9.37
2019-05-01T20:57:03.774Z,9.33
2019-05-01T20:59:35.262Z,9.29
2019-05-01T21:02:07.715Z,9.14
2019-05-01T21:04:45.813Z,9.15
2019-05-01T21:07:29.512Z,9.06
2019-05-01T21:09:59.397Z,9.04
2019-05-01T21:12:28.756Z,9.09
2019-05-01T21:14:57.731Z,9.13
2019-05-01T21:17:26.639Z,9.16
2019-05-01T21:19:55.493Z,9.12
2019-05-01T21:22:26.485Z,9.10
2019-05-01T21:24:57.386Z,9.10
2019-05-01T21:27:26.384Z,8.98
2019-05-01T21:29:55.215Z,8.97
2019-05-01T21:32:27.447Z,8.88
2019-05-01T21:34:56.062Z,8.79
2019-05-01T21:37:25.239Z,8.74
2019-05-01T21:39:54.638Z,8.75
2019-05-01T21:42:25.583Z,8.75
2019-05-01T21:44:54.646Z,8.67
2019-05-01T21:47:23.865Z,8.64
2019-05-01T21:49:53.057Z,8.65
2019-05-01T21:52:26.656Z,8.61
2019-05-01T21:54:55.355Z,8.59
2019-05-01T21:57:24.577Z,8.53
2019-05-01T21:59:55.431Z,8.48
2019-05-01T22:02:26.279Z,8.46
2019-05-01T22:04:55.184Z,8.33
2019-05-01T22:07:27.777Z,8.31
2019-05-01T22:09:54.747Z,8.30
2019-05-01T22:12:23.751Z,8.24
2019-05-01T22:14:56.337Z,8.20
2019-05-01T22:17:39.811Z,8.22
2019-05-01T22:20:10.725Z,8.15
2019-05-01T22:22:48.039Z,8.18
2019-05-01T22:25:23.351Z,8.17
2019-05-01T22:28:20.533Z,8.14
2019-05-01T22:31:21.828Z,8.14
2019-05-01T22:33:49.311Z,8.12
2019-05-01T22:36:18.300Z,7.98
2019-05-01T22:38:47.375Z,7.95
2019-05-01T22:41:16.167Z,7.91
2019-05-01T22:43:45.072Z,7.91
2019-05-01T22:46:20.287Z,7.95
2019-05-01T22:48:49.199Z,7.88
2019-05-01T22:51:22.484Z,7.86
2019-05-01T22:53:54.692Z,7.77
2019-05-01T22:56:25.102Z,7.71
2019-05-01T22:58:54.188Z,7.66
2019-05-01T23:01:24.336Z,7.68
2019-05-01T23:03:55.388Z,7.72
2019-05-01T23:06:24.610Z,7.65
2019-05-01T23:08:53.687Z,7.64
2019-05-01T23:11:24.180Z,7.60
2019-05-01T23:13:53.077Z,7.59
2019-05-01T23:16:28.782Z,7.61
2019-05-01T23:18:54.775Z,7.54
2019-05-01T23:21:23.851Z,7.46
2019-05-01T23:23:56.854Z,7.44
2019-05-01T23:26:23.146Z,7.46
2019-05-01T23:28:51.924Z,7.39
2019-05-01T23:31:20.893Z,7.36
2019-05-01T23:33:50.563Z,7.40
2019-05-01T23:36:23.571Z,7.34
2019-05-01T23:38:50.976Z,7.30
2019-05-01T23:41:24.787Z,7.29
2019-05-01T23:43:50.402Z,7.26
2019-05-01T23:46:19.240Z,7.30
2019-05-01T23:48:48.064Z,7.16
2019-05-01T23:51:17.240Z,7.16
2019-05-01T23:53:48.217Z,7.14
2019-05-01T23:56:16.599Z,7.14
2019-05-01T23:58:45.488Z,7.09
